Time;durP1;ratioP1;P1;durP2;ratioP2;P2;SDS_P1;SDS_P2;PMS_P1;PMS_P2;Temp;Humidity;BMP_temperature;BMP_pressure;BME280_temperature;BME280_humidity;BME280_pressure;Samples;Min_cycle;Max_cycle;Signal;HPM_P1;HPM_P2
2023/11/20 00:04:45;;;;;;;6.28;2.15;;;12.30;99.90;;;;;;10367515;28;20201;-62
2023/11/20 00:09:50;;;;;;;7.75;2.67;;;12.30;99.90;;;;;;10366718;28;20275;-60
2023/11/20 00:14:54;;;;;;;8.18;2.10;;;12.30;99.90;;;;;;10367595;28;20271;-61
2023/11/20 00:19:57;;;;;;;9.77;3.05;;;12.20;99.90;;;;;;10368512;28;20256;-62
2023/11/20 00:25:03;;;;;;;7.20;2.13;;;12.20;99.90;;;;;;10366790;28;20209;-63
2023/11/20 00:30:08;;;;;;;11.25;2.80;;;12.20;99.90;;;;;;10366129;28;20213;-62
2023/11/20 00:35:16;;;;;;;6.70;2.80;;;12.30;99.90;;;;;;10366866;28;20235;-63
2023/11/20 00:40:22;;;;;;;8.43;2.45;;;12.30;99.90;;;;;;10366341;28;20216;-62
2023/11/20 00:45:26;;;;;;;10.15;2.45;;;12.20;99.90;;;;;;10363672;28;20626;-63
2023/11/20 00:50:29;;;;;;;7.75;2.42;;;12.30;99.90;;;;;;10366813;28;20224;-62
2023/11/20 00:55:34;;;;;;;7.65;2.40;;;12.30;99.90;;;;;;10370387;28;20261;-62
2023/11/20 01:00:38;;;;;;;9.60;2.35;;;12.30;99.90;;;;;;10366630;28;20291;-62
2023/11/20 01:05:42;;;;;;;8.27;2.65;;;12.30;99.90;;;;;;10364204;28;20209;-63
2023/11/20 01:10:47;;;;;;;10.02;3.20;;;12.30;99.90;;;;;;10365736;28;20282;-62
2023/11/20 01:15:50;;;;;;;8.35;2.50;;;12.30;99.90;;;;;;10365883;28;20217;-63
2023/11/20 01:20:54;;;;;;;6.13;2.08;;;12.40;99.90;;;;;;10367813;28;20692;-62
2023/11/20 01:25:59;;;;;;;11.70;2.33;;;12.40;99.90;;;;;;10373890;28;20193;-62
2023/11/20 01:31:03;;;;;;;6.93;2.25;;;12.40;99.90;;;;;;10372441;28;20243;-62
2023/11/20 01:36:08;;;;;;;11.07;2.50;;;12.40;99.90;;;;;;10371727;28;20268;-62
2023/11/20 01:41:13;;;;;;;8.23;2.95;;;12.40;99.90;;;;;;10374363;28;20217;-62
2023/11/20 01:46:17;;;;;;;7.65;2.35;;;12.40;99.90;;;;;;10371865;28;20255;-62
2023/11/20 01:51:23;;;;;;;6.82;2.60;;;12.40;99.90;;;;;;10370950;28;20220;-63
2023/11/20 01:56:31;;;;;;;10.18;2.35;;;12.30;99.90;;;;;;10372755;28;20220;-58
2023/11/20 02:01:34;;;;;;;7.10;2.30;;;12.40;99.90;;;;;;10373045;28;20243;-59
2023/11/20 02:06:38;;;;;;;6.38;2.40;;;12.40;99.90;;;;;;10371292;28;20247;-57
2023/11/20 02:11:45;;;;;;;9.68;2.83;;;12.40;99.90;;;;;;10371256;28;21017;-57
2023/11/20 02:16:50;;;;;;;10.88;2.30;;;12.40;99.90;;;;;;10372436;28;20217;-57
2023/11/20 02:21:53;;;;;;;8.27;2.63;;;12.40;99.90;;;;;;10370340;28;20359;-58
2023/11/20 02:27:13;;;;;;;6.85;2.33;;;12.40;99.90;;;;;;10371760;28;20618;-59
2023/11/20 02:32:17;;;;;;;7.70;2.67;;;12.40;99.90;;;;;;10369433;28;20220;-59
2023/11/20 02:37:21;;;;;;;5.72;1.90;;;12.40;99.90;;;;;;10369664;28;20225;-57
2023/11/20 02:42:25;;;;;;;7.55;2.10;;;12.40;99.90;;;;;;10346611;28;20239;-57
2023/11/20 02:47:30;;;;;;;7.85;3.08;;;12.40;99.90;;;;;;10369498;28;20201;-58
2023/11/20 02:52:34;;;;;;;12.50;2.85;;;12.40;99.90;;;;;;10369656;28;20229;-58
2023/11/20 02:57:37;;;;;;;8.23;2.50;;;12.40;99.90;;;;;;10369856;28;20224;-58
2023/11/20 03:02:42;;;;;;;10.43;2.50;;;12.40;99.90;;;;;;10369227;28;20221;-57
2023/11/20 03:07:47;;;;;;;8.25;2.70;;;12.40;99.90;;;;;;10368368;28;20197;-58
2023/11/20 03:12:51;;;;;;;10.48;3.13;;;12.40;99.90;;;;;;10373086;28;20271;-58
2023/11/20 03:17:56;;;;;;;9.73;3.00;;;12.40;99.90;;;;;;10372412;28;20217;-59
2023/11/20 03:23:00;;;;;;;10.40;3.17;;;12.40;99.90;;;;;;10365829;28;20232;-58
2023/11/20 03:28:03;;;;;;;14.00;3.08;;;12.40;99.90;;;;;;10372938;28;20714;-59
2023/11/20 03:33:09;;;;;;;11.50;3.40;;;12.40;99.90;;;;;;10368353;28;20300;-58
2023/11/20 03:38:14;;;;;;;11.38;3.47;;;12.30;99.90;;;;;;10365813;28;20693;-59
2023/11/20 03:43:17;;;;;;;9.88;3.28;;;12.30;99.90;;;;;;10367461;28;20225;-60
2023/11/20 03:48:22;;;;;;;10.90;4.22;;;12.20;99.90;;;;;;10367682;28;20727;-61
2023/11/20 03:53:26;;;;;;;11.52;4.00;;;12.20;99.90;;;;;;10366068;28;20266;-61
2023/11/20 03:58:30;;;;;;;13.15;3.97;;;12.10;99.90;;;;;;10368822;28;20252;-61
2023/11/20 04:03:35;;;;;;;10.43;3.83;;;12.10;99.90;;;;;;10367262;28;20229;-60
2023/11/20 04:08:38;;;;;;;13.43;4.00;;;12.00;99.90;;;;;;10366173;28;20267;-61
2023/11/20 04:13:42;;;;;;;9.35;4.05;;;12.00;99.90;;;;;;10365806;28;20282;-62
2023/11/20 04:18:47;;;;;;;16.10;4.60;;;12.00;99.90;;;;;;10367933;28;20217;-63
2023/11/20 04:23:51;;;;;;;11.52;4.22;;;12.00;99.90;;;;;;10365233;28;20233;-63
2023/11/20 04:28:56;;;;;;;16.17;4.57;;;12.10;99.90;;;;;;10365181;28;20270;-62
2023/11/20 04:34:01;;;;;;;11.25;3.92;;;12.00;99.90;;;;;;10367209;28;20213;-62
2023/11/20 04:39:06;;;;;;;17.55;5.07;;;12.10;99.90;;;;;;10365804;28;20317;-64
2023/11/20 04:44:10;;;;;;;13.88;4.10;;;12.10;99.90;;;;;;10365857;28;20205;-62
2023/11/20 04:49:15;;;;;;;10.82;3.58;;;12.10;99.90;;;;;;10369734;28;20279;-64
2023/11/20 04:54:19;;;;;;;9.45;3.67;;;12.10;99.90;;;;;;10366246;28;20247;-63
2023/11/20 04:59:22;;;;;;;12.18;4.10;;;12.10;99.90;;;;;;10373727;28;20220;-64
2023/11/20 05:04:27;;;;;;;12.82;3.13;;;12.00;99.90;;;;;;10373377;28;20279;-65
2023/11/20 05:09:31;;;;;;;12.38;3.53;;;12.10;99.90;;;;;;10372961;28;20571;-65
2023/11/20 05:14:35;;;;;;;10.80;3.10;;;12.10;99.90;;;;;;10374055;28;20201;-64
2023/11/20 05:19:40;;;;;;;10.98;3.00;;;12.00;99.90;;;;;;10374724;28;20283;-65
2023/11/20 05:24:43;;;;;;;8.00;2.97;;;12.10;99.90;;;;;;10372280;28;20653;-64
2023/11/20 05:29:47;;;;;;;13.30;3.67;;;12.10;99.90;;;;;;10373030;28;20290;-64
2023/11/20 05:34:52;;;;;;;6.35;2.88;;;12.00;99.90;;;;;;10372994;28;20223;-64
2023/11/20 05:39:56;;;;;;;10.13;3.60;;;12.10;99.90;;;;;;10373652;28;20221;-60
2023/11/20 05:45:03;;;;;;;9.38;3.10;;;12.10;99.90;;;;;;10364629;28;20255;-58
2023/11/20 05:50:09;;;;;;;9.13;3.65;;;12.10;99.90;;;;;;10324949;28;20294;-59
2023/11/20 05:55:12;;;;;;;8.15;4.38;;;12.10;99.90;;;;;;10373246;28;20201;-60
2023/11/20 06:00:17;;;;;;;7.88;3.72;;;12.10;99.90;;;;;;10375343;28;20228;-60
2023/11/20 06:05:22;;;;;;;10.45;4.28;;;12.10;99.90;;;;;;10371515;28;20197;-59
2023/11/20 06:10:26;;;;;;;9.90;4.40;;;12.10;99.90;;;;;;10370852;28;20229;-61
2023/11/20 06:15:30;;;;;;;8.02;4.30;;;12.10;99.90;;;;;;10369092;28;20213;-61
2023/11/20 06:20:35;;;;;;;11.13;4.88;;;12.00;99.90;;;;;;10369680;28;20224;-60
2023/11/20 06:25:39;;;;;;;11.05;4.55;;;12.00;99.90;;;;;;10369797;28;20209;-60
2023/11/20 06:30:43;;;;;;;11.27;4.90;;;12.00;99.90;;;;;;10370462;28;20286;-60
2023/11/20 06:35:48;;;;;;;10.88;4.22;;;12.00;99.90;;;;;;10368399;28;20819;-60
2023/11/20 06:40:52;;;;;;;11.98;4.50;;;11.90;99.90;;;;;;10368974;28;20318;-60
2023/11/20 06:45:56;;;;;;;16.77;5.30;;;11.90;99.90;;;;;;10367750;28;20197;-60
2023/11/20 06:51:01;;;;;;;14.77;6.03;;;11.90;99.90;;;;;;10369444;28;20229;-60
2023/11/20 06:56:15;;;;;;;18.58;6.03;;;11.90;99.90;;;;;;10367620;28;20589;-61
2023/11/20 07:01:20;;;;;;;13.45;5.85;;;11.80;99.90;;;;;;10370884;28;20252;-60
2023/11/20 07:06:25;;;;;;;16.35;6.40;;;11.80;99.90;;;;;;10349936;28;20196;-60
2023/11/20 07:11:29;;;;;;;18.90;5.82;;;11.90;99.90;;;;;;10368454;28;20283;-60
2023/11/20 07:16:33;;;;;;;11.75;4.93;;;11.90;99.90;;;;;;10366065;28;20259;-60
2023/11/20 07:21:39;;;;;;;15.38;5.43;;;11.80;99.90;;;;;;10368172;28;20762;-60
2023/11/20 07:26:43;;;;;;;17.47;6.40;;;11.90;99.90;;;;;;10366804;28;20451;-63
2023/11/20 07:31:47;;;;;;;14.95;5.00;;;11.90;99.90;;;;;;10366431;28;20267;-62
2023/11/20 07:36:55;;;;;;;17.20;5.18;;;12.00;99.90;;;;;;10366917;28;20259;-62
2023/11/20 07:42:00;;;;;;;17.40;4.45;;;12.00;99.90;;;;;;10367536;28;20275;-62
2023/11/20 07:47:04;;;;;;;15.20;4.60;;;11.90;99.90;;;;;;10367431;28;20644;-63
2023/11/20 07:52:09;;;;;;;14.07;4.75;;;11.90;99.90;;;;;;10366707;28;20278;-62
2023/11/20 07:57:15;;;;;;;16.38;4.68;;;12.00;99.90;;;;;;10365950;28;20228;-63
2023/11/20 08:02:19;;;;;;;17.60;4.95;;;11.90;99.90;;;;;;10338648;28;20599;-63
2023/11/20 08:07:24;;;;;;;21.92;5.10;;;11.90;99.90;;;;;;10375805;28;20225;-63
2023/11/20 08:12:27;;;;;;;13.48;4.50;;;11.90;99.90;;;;;;10367535;28;20221;-62
2023/11/20 08:17:31;;;;;;;14.85;4.40;;;11.90;99.90;;;;;;10370125;28;20661;-65
2023/11/20 08:22:36;;;;;;;14.18;4.78;;;11.90;99.90;;;;;;10369404;28;20225;-64
2023/11/20 08:27:40;;;;;;;15.23;4.85;;;11.90;99.90;;;;;;10369084;28;20248;-65
2023/11/20 08:32:47;;;;;;;13.20;3.67;;;11.90;99.90;;;;;;10368266;28;20235;-64
2023/11/20 08:37:52;;;;;;;17.88;4.40;;;12.00;99.90;;;;;;10369411;28;20560;-65
2023/11/20 08:42:56;;;;;;;17.20;4.53;;;12.00;99.90;;;;;;10368883;28;20266;-66
2023/11/20 08:47:59;;;;;;;15.15;4.63;;;12.00;99.90;;;;;;10369124;28;20660;-67
2023/11/20 08:53:05;;;;;;;15.60;4.18;;;12.00;99.90;;;;;;10369595;28;20305;-65
2023/11/20 08:58:09;;;;;;;14.20;3.88;;;12.10;99.90;;;;;;10366982;28;20251;-65
2023/11/20 09:03:13;;;;;;;13.88;4.43;;;12.10;99.90;;;;;;10369733;28;20224;-66
2023/11/20 09:08:18;;;;;;;14.27;4.40;;;12.10;99.80;;;;;;10366488;28;20259;-65
2023/11/20 09:13:21;;;;;;;16.67;4.43;;;12.20;99.60;;;;;;10362999;28;20291;-65
2023/11/20 09:18:25;;;;;;;18.50;3.88;;;12.20;99.60;;;;;;10364052;28;20201;-66
2023/11/20 09:23:30;;;;;;;19.20;4.32;;;12.30;99.40;;;;;;10320511;28;20228;-64
2023/11/20 09:28:33;;;;;;;17.00;4.40;;;12.30;99.10;;;;;;10366050;28;20205;-63
2023/11/20 09:33:37;;;;;;;17.52;4.65;;;12.30;98.80;;;;;;10365004;28;20220;-64
2023/11/20 09:38:43;;;;;;;21.25;4.57;;;12.30;98.50;;;;;;10367288;28;20282;-63
2023/11/20 09:43:49;;;;;;;12.20;3.90;;;12.30;98.90;;;;;;10365462;28;20225;-64
2023/11/20 09:48:54;;;;;;;14.73;4.13;;;12.30;98.70;;;;;;10374060;28;20201;-64
2023/11/20 09:54:00;;;;;;;16.10;3.85;;;12.40;98.30;;;;;;10375031;28;20665;-64
2023/11/20 09:59:04;;;;;;;14.02;3.78;;;12.50;98.70;;;;;;10371014;28;20247;-64
2023/11/20 10:04:09;;;;;;;12.60;3.30;;;12.50;98.50;;;;;;10373472;28;20332;-64
2023/11/20 10:09:16;;;;;;;12.77;3.47;;;12.60;98.00;;;;;;10373489;28;20232;-64
2023/11/20 10:14:20;;;;;;;11.52;3.60;;;12.60;97.90;;;;;;10373642;28;20271;-64
2023/11/20 10:19:23;;;;;;;11.65;3.25;;;12.60;97.50;;;;;;10371172;28;20228;-65
2023/11/20 10:24:29;;;;;;;14.45;3.65;;;12.60;97.20;;;;;;10372209;28;20648;-65
2023/11/20 10:29:33;;;;;;;12.57;4.20;;;12.60;97.70;;;;;;10372990;28;20275;-66
2023/11/20 10:34:36;;;;;;;14.05;3.70;;;12.60;97.60;;;;;;10378312;28;20201;-65
2023/11/20 10:39:41;;;;;;;11.55;3.50;;;12.60;97.30;;;;;;10364562;28;20229;-66
2023/11/20 10:44:45;;;;;;;9.93;3.67;;;12.60;97.40;;;;;;10367868;28;20205;-65
2023/11/20 10:49:49;;;;;;;13.82;3.40;;;12.70;97.70;;;;;;10372962;28;20263;-65
2023/11/20 10:54:58;;;;;;;9.75;3.25;;;12.80;97.60;;;;;;10369584;28;20201;-65
2023/11/20 11:00:09;;;;;;;11.55;3.47;;;12.70;96.90;;;;;;10372630;28;20256;-64
2023/11/20 11:05:13;;;;;;;10.48;3.20;;;12.70;98.20;;;;;;10371681;28;20197;-64
2023/11/20 11:10:19;;;;;;;9.52;3.13;;;12.70;97.50;;;;;;10370971;28;20217;-64
2023/11/20 11:15:23;;;;;;;10.95;3.45;;;12.70;97.70;;;;;;10368824;28;20205;-65
2023/11/20 11:20:32;;;;;;;9.15;2.60;;;12.60;98.00;;;;;;10370825;28;20217;-67
2023/11/20 11:25:44;;;;;;;6.78;2.78;;;12.60;98.00;;;;;;10370628;28;20209;-64
2023/11/20 11:30:49;;;;;;;7.75;2.63;;;12.50;97.80;;;;;;10370239;28;20283;-64
2023/11/20 11:36:14;;;;;;;7.78;2.67;;;12.50;98.10;;;;;;10368620;28;20541;-64
2023/11/20 11:41:33;;;;;;;9.05;3.17;;;12.40;98.10;;;;;;10369787;28;20229;-63
2023/11/20 11:46:37;;;;;;;10.90;2.78;;;12.40;98.20;;;;;;10369579;28;20255;-65
2023/11/20 11:51:43;;;;;;;11.48;2.90;;;12.40;98.40;;;;;;10363740;28;20212;-65
2023/11/20 11:57:00;;;;;;;7.30;2.80;;;12.40;98.40;;;;;;10359677;28;20677;-65
2023/11/20 12:02:04;;;;;;;15.02;5.32;;;12.40;98.30;;;;;;10360133;28;20650;-64
2023/11/20 12:07:08;;;;;;;9.00;3.17;;;12.40;98.10;;;;;;10367732;28;20201;-64
2023/11/20 12:12:14;;;;;;;9.93;3.45;;;12.40;98.20;;;;;;10368342;28;20235;-64
2023/11/20 12:17:17;;;;;;;6.30;2.42;;;12.50;98.10;;;;;;10365762;28;20618;-64
2023/11/20 12:22:23;;;;;;;10.38;3.35;;;12.50;98.10;;;;;;10355622;28;20233;-63
2023/11/20 12:27:38;;;;;;;8.73;4.10;;;12.50;98.10;;;;;;10368115;28;20204;-64
2023/11/20 12:32:43;;;;;;;14.70;5.93;;;12.60;98.20;;;;;;10362460;28;20224;-64
2023/11/20 12:37:47;;;;;;;6.88;2.00;;;12.70;97.70;;;;;;10364084;28;20710;-64
2023/11/20 12:42:52;;;;;;;6.10;2.28;;;12.80;97.50;;;;;;10375100;28;20224;-63
2023/11/20 12:47:56;;;;;;;7.40;2.78;;;12.80;97.00;;;;;;10365476;28;20228;-62
2023/11/20 12:53:00;;;;;;;5.22;1.98;;;12.80;97.50;;;;;;10369217;28;20245;-65
2023/11/20 12:58:08;;;;;;;10.77;2.72;;;12.80;97.00;;;;;;10362689;28;20295;-64
2023/11/20 13:03:15;;;;;;;6.38;2.05;;;12.90;96.50;;;;;;10371756;28;20256;-64
2023/11/20 13:08:20;;;;;;;5.68;1.40;;;13.00;96.20;;;;;;10364439;28;20204;-63
2023/11/20 13:13:28;;;;;;;5.45;1.50;;;13.10;95.20;;;;;;10367283;28;20762;-63
2023/11/20 13:18:32;;;;;;;4.80;1.50;;;13.10;94.60;;;;;;10368391;28;20193;-64
2023/11/20 13:23:36;;;;;;;5.20;1.70;;;13.00;94.60;;;;;;10371464;28;20229;-64
2023/11/20 13:28:42;;;;;;;7.00;1.77;;;12.90;95.50;;;;;;10377424;28;20204;-63
2023/11/20 13:33:46;;;;;;;5.43;1.63;;;12.90;95.60;;;;;;10364241;28;20267;-64
2023/11/20 13:38:50;;;;;;;4.20;1.60;;;12.90;95.90;;;;;;10376082;28;20737;-65
2023/11/20 13:43:55;;;;;;;5.20;1.52;;;12.80;95.20;;;;;;10376516;28;20729;-64
2023/11/20 13:48:59;;;;;;;5.28;1.52;;;12.70;95.00;;;;;;10373390;28;20251;-64
2023/11/20 13:54:02;;;;;;;3.72;1.38;;;12.70;95.20;;;;;;10378117;28;20205;-63
2023/11/20 13:59:09;;;;;;;6.10;1.60;;;12.70;95.00;;;;;;10380214;28;20209;-63
2023/11/20 14:04:13;;;;;;;3.58;1.48;;;12.80;95.30;;;;;;10372566;28;20220;-65
2023/11/20 14:09:19;;;;;;;4.72;1.77;;;12.80;94.40;;;;;;10375984;28;20243;-64
2023/11/20 14:14:24;;;;;;;8.48;1.75;;;12.90;94.50;;;;;;10376619;28;20193;-64
2023/11/20 14:19:28;;;;;;;4.70;1.60;;;12.80;94.40;;;;;;10374864;28;20221;-63
2023/11/20 14:24:32;;;;;;;4.68;1.95;;;12.80;94.70;;;;;;10371826;28;20236;-66
2023/11/20 14:29:36;;;;;;;6.72;1.73;;;12.80;95.00;;;;;;10375581;28;20229;-64
2023/11/20 14:34:40;;;;;;;6.25;2.00;;;12.70;95.10;;;;;;10375020;28;20193;-64
2023/11/20 14:39:44;;;;;;;8.82;2.20;;;12.70;95.80;;;;;;10376419;28;20224;-64
2023/11/20 14:44:49;;;;;;;7.15;2.10;;;12.70;95.40;;;;;;10373967;28;20696;-63
2023/11/20 14:49:53;;;;;;;7.47;1.92;;;12.70;95.70;;;;;;10383399;28;20248;-64
2023/11/20 14:54:57;;;;;;;6.28;2.08;;;12.70;95.80;;;;;;10371214;28;20197;-65
2023/11/20 15:00:03;;;;;;;6.35;2.25;;;12.60;96.20;;;;;;10370781;28;20287;-65
2023/11/20 15:05:07;;;;;;;7.20;2.20;;;12.50;96.50;;;;;;10373197;28;20596;-64
2023/11/20 15:10:14;;;;;;;7.40;2.33;;;12.40;95.70;;;;;;10345231;28;20220;-63
2023/11/20 15:15:19;;;;;;;6.40;2.25;;;12.40;96.10;;;;;;10369836;28;20193;-64
2023/11/20 15:20:24;;;;;;;5.93;2.20;;;12.20;96.00;;;;;;10379976;28;20220;-64
2023/11/20 15:25:27;;;;;;;5.80;2.85;;;12.20;96.20;;;;;;10370652;28;20221;-65
2023/11/20 15:30:33;;;;;;;6.00;2.30;;;12.20;96.40;;;;;;10373030;28;20774;-63
2023/11/20 15:35:38;;;;;;;8.13;1.98;;;12.10;96.90;;;;;;10374294;28;20220;-63
2023/11/20 15:40:42;;;;;;;6.40;2.05;;;12.10;96.70;;;;;;10374342;28;20286;-64
2023/11/20 15:45:48;;;;;;;7.55;2.15;;;12.10;96.80;;;;;;10368478;28;20924;-64
2023/11/20 15:50:56;;;;;;;9.05;2.40;;;12.00;96.70;;;;;;10374609;28;20224;-64
2023/11/20 15:56:00;;;;;;;4.88;1.85;;;12.00;96.70;;;;;;10369052;28;20205;-64
2023/11/20 16:01:07;;;;;;;7.28;1.95;;;11.90;96.80;;;;;;10370160;28;20279;-63
2023/11/20 16:06:11;;;;;;;8.50;2.13;;;11.90;97.00;;;;;;10373891;28;20213;-64
2023/11/20 16:11:15;;;;;;;4.78;2.33;;;11.90;97.20;;;;;;10368149;28;20275;-66
2023/11/20 16:16:20;;;;;;;8.38;2.80;;;11.80;97.30;;;;;;10366388;28;20197;-65
2023/11/20 16:21:24;;;;;;;7.82;2.03;;;11.80;97.30;;;;;;10370350;28;20251;-66
2023/11/20 16:26:27;;;;;;;7.13;2.60;;;11.80;97.60;;;;;;10368542;28;20637;-65
2023/11/20 16:31:32;;;;;;;6.80;2.38;;;11.80;96.90;;;;;;10368243;28;20225;-65
2023/11/20 16:36:36;;;;;;;7.60;2.53;;;11.70;97.00;;;;;;10368206;28;20193;-65
2023/11/20 16:41:40;;;;;;;11.13;5.13;;;11.70;97.10;;;;;;10368547;28;20271;-64
2023/11/20 16:46:45;;;;;;;8.27;3.30;;;11.70;97.00;;;;;;10364698;28;20252;-63
2023/11/20 16:51:48;;;;;;;9.23;2.70;;;11.70;97.50;;;;;;10368449;28;20229;-63
2023/11/20 16:56:52;;;;;;;11.98;3.95;;;11.60;97.20;;;;;;10375271;28;20196;-62
2023/11/20 17:01:57;;;;;;;8.48;2.85;;;11.60;97.20;;;;;;10340669;28;20244;-63
2023/11/20 17:07:01;;;;;;;8.57;3.77;;;11.60;97.20;;;;;;10372440;28;20656;-62
2023/11/20 17:12:06;;;;;;;7.55;3.08;;;11.50;97.30;;;;;;10375971;28;20762;-61
2023/11/20 17:17:11;;;;;;;9.77;3.72;;;11.50;97.30;;;;;;10375541;28;20204;-61
2023/11/20 17:22:15;;;;;;;8.55;4.25;;;11.50;97.30;;;;;;10375905;28;20228;-61
2023/11/20 17:27:19;;;;;;;9.88;4.40;;;11.50;97.40;;;;;;10372348;28;20200;-61
2023/11/20 17:32:25;;;;;;;7.67;3.40;;;11.40;97.40;;;;;;10375189;28;20584;-61
2023/11/20 17:37:29;;;;;;;8.50;3.70;;;11.40;97.50;;;;;;10374029;28;20263;-61
2023/11/20 17:42:32;;;;;;;8.52;4.00;;;11.30;97.70;;;;;;10375106;28;20224;-62
2023/11/20 17:47:38;;;;;;;8.33;3.37;;;11.30;97.70;;;;;;10375425;28;20205;-62
2023/11/20 17:52:42;;;;;;;9.03;3.80;;;11.30;97.80;;;;;;10375064;28;20217;-61
2023/11/20 17:57:46;;;;;;;8.60;3.63;;;11.30;97.90;;;;;;10374298;28;20205;-61
2023/11/20 18:02:51;;;;;;;10.50;4.33;;;11.20;97.90;;;;;;10366538;28;20217;-62
2023/11/20 18:07:57;;;;;;;7.60;3.87;;;11.20;97.80;;;;;;10375863;28;20205;-63
2023/11/20 18:13:01;;;;;;;9.03;4.07;;;11.20;97.80;;;;;;10376416;28;20237;-63
2023/11/20 18:18:06;;;;;;;13.00;4.53;;;11.20;97.80;;;;;;10374623;28;20205;-63
2023/11/20 18:23:10;;;;;;;10.50;4.77;;;11.10;97.80;;;;;;10377215;28;20591;-63
2023/11/20 18:28:15;;;;;;;8.90;4.70;;;11.10;97.80;;;;;;10375681;28;20197;-62
2023/11/20 18:33:20;;;;;;;10.27;5.90;;;11.10;97.90;;;;;;10374124;28;20270;-62
2023/11/20 18:38:27;;;;;;;11.83;5.90;;;11.00;97.90;;;;;;10375024;28;20201;-64
2023/11/20 18:43:31;;;;;;;11.32;6.63;;;11.00;97.80;;;;;;10380385;28;20510;-58
2023/11/20 18:48:36;;;;;;;10.52;6.10;;;11.00;98.00;;;;;;10374794;28;20224;-60
2023/11/20 18:53:41;;;;;;;8.60;5.82;;;11.00;97.70;;;;;;10374124;28;20239;-58
2023/11/20 18:58:45;;;;;;;9.47;5.80;;;11.00;97.70;;;;;;10370867;28;20405;-60
2023/11/20 19:03:51;;;;;;;12.50;4.95;;;10.90;97.60;;;;;;10373703;28;20216;-59
2023/11/20 19:08:54;;;;;;;10.83;6.63;;;10.80;97.50;;;;;;10381106;28;20254;-60
2023/11/20 19:13:58;;;;;;;9.43;5.97;;;10.80;97.70;;;;;;10373245;28;20256;-59
2023/11/20 19:19:03;;;;;;;12.43;5.30;;;10.80;97.80;;;;;;10372917;28;20220;-60
2023/11/20 19:24:08;;;;;;;11.40;5.27;;;10.70;97.70;;;;;;10366562;28;20224;-59
2023/11/20 19:29:11;;;;;;;12.07;6.40;;;10.70;97.90;;;;;;10371566;28;20204;-60
2023/11/20 19:34:19;;;;;;;12.77;6.77;;;10.60;97.80;;;;;;10372432;28;20197;-59
2023/11/20 19:39:24;;;;;;;11.13;6.17;;;10.60;97.80;;;;;;10371835;28;20220;-60
2023/11/20 19:44:28;;;;;;;10.50;6.30;;;10.60;97.80;;;;;;10371679;28;20279;-60
2023/11/20 19:49:33;;;;;;;14.23;7.20;;;10.50;97.60;;;;;;10372583;28;20597;-60
2023/11/20 19:54:37;;;;;;;13.50;8.13;;;10.50;97.60;;;;;;10371033;28;20201;-59
2023/11/20 19:59:41;;;;;;;9.73;6.33;;;10.40;97.70;;;;;;10360709;28;20226;-60
2023/11/20 20:04:46;;;;;;;15.70;8.10;;;10.40;97.60;;;;;;10363168;28;20220;-58
2023/11/20 20:09:49;;;;;;;11.73;7.37;;;10.40;97.60;;;;;;10365962;28;20224;-59
2023/11/20 20:14:53;;;;;;;14.20;9.10;;;10.30;97.70;;;;;;10370212;28;20243;-58
2023/11/20 20:19:58;;;;;;;16.30;9.63;;;10.40;97.80;;;;;;10374704;28;20217;-60
2023/11/20 20:25:02;;;;;;;20.37;11.93;;;10.40;98.00;;;;;;10373805;28;20228;-60
2023/11/20 20:30:07;;;;;;;13.07;8.47;;;10.40;97.90;;;;;;10370477;28;20224;-59
2023/11/20 20:35:12;;;;;;;12.17;8.87;;;10.40;98.00;;;;;;10370613;28;20219;-59
2023/11/20 20:40:22;;;;;;;13.80;8.40;;;10.40;97.90;;;;;;10369949;28;20762;-60
2023/11/20 20:45:25;;;;;;;16.03;8.23;;;10.40;97.80;;;;;;10370111;28;20220;-59
2023/11/20 20:50:30;;;;;;;15.53;9.57;;;10.40;97.90;;;;;;10370462;28;20639;-59
2023/11/20 20:55:35;;;;;;;12.07;8.33;;;10.40;98.10;;;;;;10369995;28;20668;-60
2023/11/20 21:00:39;;;;;;;13.27;8.20;;;10.40;98.10;;;;;;10369122;28;20593;-59
2023/11/20 21:05:44;;;;;;;15.27;9.70;;;10.40;98.00;;;;;;10369118;28;20221;-59
2023/11/20 21:10:48;;;;;;;14.93;9.10;;;10.40;98.10;;;;;;10375130;28;20221;-59
2023/11/20 21:15:51;;;;;;;14.30;10.20;;;10.40;98.20;;;;;;10365747;28;20498;-61
2023/11/20 21:20:56;;;;;;;14.23;8.70;;;10.60;98.50;;;;;;10367804;28;20701;-61
2023/11/20 21:26:00;;;;;;;16.27;8.87;;;10.60;98.20;;;;;;10371036;28;20225;-61
2023/11/20 21:31:04;;;;;;;18.25;8.82;;;10.60;98.20;;;;;;10372282;28;20291;-61
2023/11/20 21:36:11;;;;;;;14.17;9.43;;;10.60;98.20;;;;;;10372833;28;20200;-62
2023/11/20 21:41:16;;;;;;;16.03;10.60;;;10.50;98.40;;;;;;10381164;28;20278;-61
2023/11/20 21:46:20;;;;;;;12.27;8.30;;;10.50;98.40;;;;;;10376515;28;20240;-61
2023/11/20 21:51:25;;;;;;;14.53;8.90;;;10.50;98.60;;;;;;10382758;28;20298;-62
2023/11/20 21:56:29;;;;;;;16.20;10.23;;;10.50;98.30;;;;;;10378453;28;20845;-62
2023/11/20 22:01:32;;;;;;;13.87;9.60;;;10.50;98.80;;;;;;10375137;28;20228;-61
2023/11/20 22:06:40;;;;;;;15.37;9.03;;;10.50;98.40;;;;;;10375704;28;20212;-61
2023/11/20 22:11:46;;;;;;;14.47;9.30;;;10.50;98.40;;;;;;10375336;28;20217;-61
2023/11/20 22:16:49;;;;;;;13.47;8.60;;;10.40;98.40;;;;;;10375629;28;20193;-60
2023/11/20 22:21:54;;;;;;;16.13;8.80;;;10.40;98.40;;;;;;10374016;28;20666;-61
2023/11/20 22:26:58;;;;;;;13.13;8.70;;;10.40;98.50;;;;;;10374854;28;20216;-60
2023/11/20 22:32:02;;;;;;;14.07;9.63;;;10.50;98.50;;;;;;10378948;28;20760;-62
2023/11/20 22:37:07;;;;;;;18.13;10.00;;;10.50;98.70;;;;;;10376260;28;20204;-62
2023/11/20 22:42:12;;;;;;;16.73;9.85;;;10.40;98.60;;;;;;10376563;28;20601;-61
2023/11/20 22:47:16;;;;;;;13.30;9.63;;;10.50;98.70;;;;;;10381176;28;20294;-61
2023/11/20 22:52:21;;;;;;;14.67;9.27;;;10.50;98.80;;;;;;10379508;28;20715;-62
2023/11/20 22:57:25;;;;;;;14.40;10.27;;;10.50;98.80;;;;;;10376335;28;20197;-60
2023/11/20 23:02:29;;;;;;;13.47;10.20;;;10.40;98.80;;;;;;10378437;28;20783;-62
2023/11/20 23:07:34;;;;;;;14.00;10.50;;;10.50;99.00;;;;;;10373407;28;20217;-62
2023/11/20 23:12:38;;;;;;;18.43;9.80;;;10.50;98.80;;;;;;10380863;28;20213;-61
2023/11/20 23:17:42;;;;;;;17.30;10.17;;;10.50;98.90;;;;;;10375184;28;20205;-61
2023/11/20 23:22:47;;;;;;;16.43;11.17;;;10.50;98.80;;;;;;10378494;28;20223;-62
2023/11/20 23:27:51;;;;;;;17.17;10.97;;;10.50;98.90;;;;;;10365654;28;20216;-62
2023/11/20 23:32:55;;;;;;;16.38;10.98;;;10.50;98.90;;;;;;10377013;28;20284;-62
2023/11/20 23:38:00;;;;;;;20.73;11.77;;;10.50;98.90;;;;;;10375820;28;20201;-61
2023/11/20 23:43:04;;;;;;;14.30;11.27;;;10.50;99.00;;;;;;10373496;28;20225;-62
2023/11/20 23:48:08;;;;;;;16.67;10.47;;;10.50;99.40;;;;;;10376325;28;20216;-61
2023/11/20 23:53:14;;;;;;;20.30;12.67;;;10.50;99.40;;;;;;10351313;28;20277;-62
2023/11/20 23:58:17;;;;;;;17.40;12.30;;;10.50;99.40;;;;;;10373694;28;20200;-62
